Time;durP1;ratioP1;P1;durP2;ratioP2;P2;SDS_P1;SDS_P2;PMS_P1;PMS_P2;Temp;Humidity;BMP_temperature;BMP_pressure;BME280_temperature;BME280_humidity;BME280_pressure;Samples;Min_cycle;Max_cycle;Signal;HPM_P1;HPM_P2
2022/09/12 00:01:38;;;;;;;;;12.75;9.25;;;;;18.42;65.99;101280.53;5039372;28;45337;-91
2022/09/12 00:04:03;;;;;;;;;12.25;10.50;;;;;18.40;65.28;101287.69;5021663;28;45305;-91
2022/09/12 00:06:33;;;;;;;;;13.25;10.25;;;;;18.35;65.63;101286.16;5039249;28;45432;-91
2022/09/12 00:09:03;;;;;;;;;13.25;9.00;;;;;18.32;65.44;101281.03;5021901;28;48114;-91
2022/09/12 00:11:31;;;;;;;;;11.00;11.00;;;;;18.30;65.87;101279.41;5038034;28;45889;-91
2022/09/12 00:13:59;;;;;;;;;14.00;11.00;;;;;18.29;65.64;101277.72;5039312;28;45370;-92
2022/09/12 00:16:27;;;;;;;;;16.00;11.75;;;;;18.27;66.23;101277.78;5021755;28;45365;-92
2022/09/12 00:18:52;;;;;;;;;13.25;9.50;;;;;18.24;65.79;101275.34;5037701;28;46780;-91
2022/09/12 00:21:19;;;;;;;;;10.00;10.00;;;;;18.23;66.11;101270.97;5004646;28;45313;-92
2022/09/12 00:23:48;;;;;;;;;10.00;10.00;;;;;18.19;65.97;101270.28;5022479;28;45304;-93
2022/09/12 00:26:14;;;;;;;;;14.75;12.75;;;;;18.16;65.98;101259.06;5039335;28;45458;-91
2022/09/12 00:28:42;;;;;;;;;11.50;10.00;;;;;18.13;65.94;101259.25;5004597;28;48054;-92
2022/09/12 00:31:13;;;;;;;;;14.25;10.25;;;;;18.08;65.75;101261.25;5021389;28;45645;-92
2022/09/12 00:33:39;;;;;;;;;12.00;10.00;;;;;18.06;65.88;101257.84;5038657;28;45246;-92
2022/09/12 00:36:07;;;;;;;;;11.00;10.25;;;;;18.03;66.12;101255.38;5029350;28;45456;-92
2022/09/12 00:38:42;;;;;;;;;;;;;;;;;;;;;
2022/09/12 00:41:18;;;;;;;;;13.00;10.00;;;;;17.97;66.65;101246.84;5038584;28;72922;-92
2022/09/12 00:43:58;;;;;;;;;12.75;10.00;;;;;17.96;66.65;101245.16;5058501;28;45285;-92
2022/09/12 00:46:33;;;;;;;;;14.75;10.50;;;;;17.98;66.78;101237.19;5057910;28;45361;-92
2022/09/12 00:48:59;;;;;;;;;13.50;13.25;;;;;17.97;66.82;101240.72;5058400;28;46401;-91
2022/09/12 00:51:25;;;;;;;;;14.25;9.50;;;;;17.96;66.46;101233.78;5040865;28;45460;-92
2022/09/12 00:53:54;;;;;;;;;12.75;11.00;;;;;17.95;66.75;101229.44;5041101;28;45472;-92
2022/09/12 00:56:21;;;;;;;;;12.25;12.25;;;;;17.94;66.78;101227.72;5054242;28;45519;-92
2022/09/12 00:59:01;;;;;;;;;12.50;11.75;;;;;17.91;66.77;101228.72;5037596;28;47374;-92
2022/09/12 01:01:27;;;;;;;;;13.25;8.50;;;;;17.89;66.85;101235.03;5037418;28;45339;-91
2022/09/12 01:03:52;;;;;;;;;14.00;11.75;;;;;17.88;67.13;101228.03;5020596;28;45244;-92
2022/09/12 01:06:25;;;;;;;;;14.75;13.00;;;;;17.85;67.35;101231.69;5037398;28;45514;-91
2022/09/12 01:08:51;;;;;;;;;11.75;10.75;;;;;17.85;66.81;101228.19;5036935;28;45373;-91
2022/09/12 01:11:18;;;;;;;;;14.75;10.75;;;;;17.82;67.13;101229.16;5037172;28;45958;-91
2022/09/12 01:13:44;;;;;;;;;9.75;8.75;;;;;17.82;67.11;101225.69;5037392;28;45256;-92
2022/09/12 01:16:10;;;;;;;;;14.25;12.75;;;;;17.81;67.18;101224.81;5054344;28;45286;-92
2022/09/12 01:19:16;;;;;;;;;14.50;13.00;;;;;17.82;67.04;101217.81;5036851;28;46397;-91
2022/09/12 01:21:51;;;;;;;;;13.25;12.25;;;;;17.79;67.40;101217.03;4976773;28;45699;-91
2022/09/12 01:24:31;;;;;;;;;13.75;10.50;;;;;17.80;67.40;101213.44;4977121;28;45371;-91
2022/09/12 01:27:12;;;;;;;;;13.00;11.00;;;;;17.80;67.37;101215.25;4977134;28;45502;-91
2022/09/12 01:29:46;;;;;;;;;10.25;10.25;;;;;17.77;67.40;101210.13;4960354;28;46091;-91
2022/09/12 01:32:22;;;;;;;;;18.00;13.00;;;;;17.75;67.34;101206.72;4957863;28;45868;-91
2022/09/12 01:35:22;;;;;;;;;13.25;10.00;;;;;17.72;67.56;101207.75;4973524;28;45505;-91
2022/09/12 01:38:16;;;;;;;;;14.00;11.75;;;;;17.70;67.56;101206.09;4941263;28;45346;-91
2022/09/12 01:40:50;;;;;;;;;12.75;9.75;;;;;17.67;67.16;101203.63;4940861;28;45329;-91
2022/09/12 01:43:30;;;;;;;;;14.50;12.00;;;;;17.65;67.81;101200.25;4940789;28;45337;-91
2022/09/12 01:46:03;;;;;;;;;13.75;13.75;;;;;17.63;67.97;101207.38;4941325;28;45381;-91
2022/09/12 01:48:35;;;;;;;;;13.50;11.00;;;;;17.61;67.80;101203.03;4940940;28;45443;-91
2022/09/12 01:51:12;;;;;;;;;16.25;14.75;;;;;17.58;67.79;101199.69;4941038;28;45275;-91
2022/09/12 01:53:41;;;;;;;;;13.00;13.00;;;;;17.56;68.00;101197.13;4956988;28;45462;-92
2022/09/12 01:56:21;;;;;;;;;14.75;12.25;;;;;17.54;67.84;101192.88;4955883;28;45512;-90
2022/09/12 01:58:53;;;;;;;;;16.00;13.75;;;;;17.52;67.72;101197.38;4985590;28;45386;-93
2022/09/12 02:01:26;;;;;;;;;16.00;14.75;;;;;17.49;68.00;101190.47;4999869;28;46399;-92
2022/09/12 02:04:07;;;;;;;;;22.75;16.50;;;;;17.47;67.91;101187.06;4983666;28;45695;-92
2022/09/12 02:06:46;;;;;;;;;22.00;16.00;;;;;17.44;68.05;101192.50;5016885;28;45328;-91
2022/09/12 02:09:21;;;;;;;;;16.75;15.75;;;;;17.40;67.93;101186.53;4983626;28;45283;-91
2022/09/12 02:11:50;;;;;;;;;21.25;18.50;;;;;17.40;68.11;101183.91;5000218;28;45433;-91
2022/09/12 02:14:23;;;;;;;;;22.75;18.00;;;;;17.37;68.71;101193.75;4999672;28;45701;-90
2022/09/12 02:16:52;;;;;;;;;19.00;15.75;;;;;17.36;68.80;101187.59;4999877;28;45317;-92
2022/09/12 02:19:23;;;;;;;;;15.00;15.00;;;;;17.34;68.33;101183.34;5017453;28;45537;-90
2022/09/12 02:21:56;;;;;;;;;13.75;13.50;;;;;17.32;68.51;101180.81;5017326;28;45447;-92
2022/09/12 02:24:30;;;;;;;;;23.00;18.75;;;;;17.33;68.74;101179.03;4983352;28;45394;-91
2022/09/12 02:26:59;;;;;;;;;18.50;14.75;;;;;17.30;68.75;101174.75;5000475;28;45370;-93
2022/09/12 02:29:27;;;;;;;;;23.75;16.00;;;;;17.29;68.65;101169.56;4999427;28;45433;-91
2022/09/12 02:32:22;;;;;;;;;18.75;16.25;;;;;17.27;68.36;101168.81;4999955;28;46196;-91
2022/09/12 02:35:30;;;;;;;;;16.25;16.00;;;;;17.25;68.60;101168.88;4939645;28;45333;-92
2022/09/12 02:38:08;;;;;;;;;20.50;16.75;;;;;17.22;68.53;101162.00;4956517;28;45253;-92
2022/09/12 02:40:34;;;;;;;;;17.50;15.25;;;;;17.21;68.49;101167.34;4956356;28;45515;-91
2022/09/12 02:43:00;;;;;;;;;18.50;16.00;;;;;17.20;68.74;101168.28;4939998;28;47233;-91
2022/09/12 02:45:35;;;;;;;;;;;;;;;;;;;;;
2022/09/12 02:48:15;;;;;;;;;20.25;16.00;;;;;17.16;68.97;101156.19;4939599;28;70087;-92
2022/09/12 02:50:41;;;;;;;;;19.75;14.25;;;;;17.11;68.91;101153.78;4940109;28;45300;-91
2022/09/12 02:53:07;;;;;;;;;15.00;14.00;;;;;17.10;69.01;101145.97;4939650;28;47166;-91
2022/09/12 02:55:37;;;;;;;;;21.25;16.75;;;;;17.08;69.00;101139.94;4940140;28;45399;-91
2022/09/12 02:58:10;;;;;;;;;17.25;14.75;;;;;17.08;69.38;101143.41;4956149;28;45396;-91
2022/09/12 03:01:21;;;;;;;;;18.25;16.50;;;;;17.10;69.42;101144.19;4940022;28;45438;-92
2022/09/12 03:03:46;;;;;;;;;14.00;13.25;;;;;17.09;69.41;101147.75;4860912;29;46362;-91
2022/09/12 03:06:44;;;;;;;;;15.00;13.75;;;;;17.11;69.24;101142.44;4861239;29;45519;-91
2022/09/12 03:09:26;;;;;;;;;14.25;14.00;;;;;17.09;69.14;101134.63;4867422;29;45517;-92
2022/09/12 03:12:14;;;;;;;;;22.50;13.75;;;;;17.08;69.01;101138.16;4900965;28;45525;-91
2022/09/12 03:15:06;;;;;;;;;17.25;13.50;;;;;17.04;69.53;101128.72;4927491;28;46494;-91
2022/09/12 03:17:43;;;;;;;;;17.00;14.50;;;;;17.02;69.27;101131.44;4926843;28;45396;-91
2022/09/12 03:20:17;;;;;;;;;12.50;10.75;;;;;17.03;69.34;101132.25;4927267;28;45416;-92
2022/09/12 03:22:57;;;;;;;;;15.25;14.25;;;;;17.02;69.38;101128.78;4927138;28;45452;-91
2022/09/12 03:25:45;;;;;;;;;17.75;14.50;;;;;16.98;69.47;101124.63;4926782;28;46188;-92
2022/09/12 03:28:21;;;;;;;;;11.25;11.00;;;;;16.96;69.23;101126.47;4927050;28;45369;-92
2022/09/12 03:30:52;;;;;;;;;15.75;14.00;;;;;16.94;69.54;101114.34;4944634;28;45477;-95
2022/09/12 03:33:19;;;;;;;;;12.75;12.00;;;;;16.93;69.42;101115.25;4940648;28;45350;-93
2022/09/12 03:35:46;;;;;;;;;15.25;12.25;;;;;16.92;69.71;101111.78;4946819;28;45704;-94
2022/09/12 03:38:12;;;;;;;;;16.50;14.75;;;;;16.92;69.46;101114.41;5002942;28;45424;-94
2022/09/12 03:40:50;;;;;;;;;;;;;;;;;;;;;
2022/09/12 03:43:23;;;;;;;;;20.75;14.50;;;;;16.89;69.81;101109.31;5042647;28;71044;-93
2022/09/12 03:45:54;;;;;;;;;16.75;15.75;;;;;16.88;70.06;101104.13;5046058;28;46406;-93
2022/09/12 03:48:19;;;;;;;;;12.25;11.00;;;;;16.88;69.76;101109.38;5045447;28;45734;-93
2022/09/12 03:50:50;;;;;;;;;14.00;13.00;;;;;16.88;69.63;101109.38;5045208;28;45262;-93
2022/09/12 03:53:15;;;;;;;;;14.00;13.25;;;;;16.85;69.77;101109.53;5045404;28;45380;-92
2022/09/12 03:55:43;;;;;;;;;16.75;13.50;;;;;16.83;69.67;101107.81;5062811;28;45380;-91
2022/09/12 03:58:08;;;;;;;;;16.00;15.00;;;;;16.81;70.07;101107.03;5062571;28;45399;-92
2022/09/12 04:00:33;;;;;;;;;15.50;13.50;;;;;16.81;69.82;101112.28;5045008;28;45583;-91
2022/09/12 04:02:59;;;;;;;;;19.75;13.00;;;;;16.81;69.84;101122.78;5045367;28;45315;-91
2022/09/12 04:05:27;;;;;;;;;15.00;11.50;;;;;16.80;69.89;101115.81;5061819;28;47029;-91
2022/09/12 04:07:52;;;;;;;;;15.50;13.75;;;;;16.80;70.30;101115.81;5045140;28;45337;-91
2022/09/12 04:10:18;;;;;;;;;14.00;11.75;;;;;16.81;70.05;101122.78;5044856;28;45394;-90
2022/09/12 04:12:44;;;;;;;;;15.00;14.00;;;;;16.81;70.13;101121.94;5061468;28;45371;-93
2022/09/12 04:15:18;;;;;;;;;13.75;11.00;;;;;16.81;70.21;101121.94;5028260;28;47897;-92
2022/09/12 04:17:46;;;;;;;;;13.50;11.00;;;;;16.81;70.21;101119.31;5045325;28;45393;-91
2022/09/12 04:20:14;;;;;;;;;15.00;14.00;;;;;16.79;69.84;101129.03;5058025;28;45290;-93
2022/09/12 04:22:39;;;;;;;;;15.75;12.50;;;;;16.78;70.20;101135.22;5042195;28;45342;-94
2022/09/12 04:25:10;;;;;;;;;14.00;11.00;;;;;16.74;70.37;101128.44;5041183;28;47573;-93
2022/09/12 04:27:36;;;;;;;;;7.50;7.00;;;;;16.73;69.88;101124.94;5041876;28;45338;-92
2022/09/12 04:30:12;;;;;;;;;12.50;12.00;;;;;16.74;69.97;101117.91;5041688;28;45370;-92
2022/09/12 04:32:42;;;;;;;;;12.00;11.25;;;;;16.72;69.98;101112.72;5052877;28;45599;-92
2022/09/12 04:35:12;;;;;;;;;12.00;11.25;;;;;16.71;70.23;101116.25;5038651;28;45707;-91
2022/09/12 04:37:40;;;;;;;;;17.00;14.25;;;;;16.69;70.26;101123.38;5021730;28;45331;-91
2022/09/12 04:40:06;;;;;;;;;14.25;11.25;;;;;16.69;70.02;101114.66;5021611;28;45469;-90
2022/09/12 04:42:36;;;;;;;;;12.75;11.00;;;;;16.68;70.02;101120.81;5038903;28;45472;-92
2022/09/12 04:45:07;;;;;;;;;16.50;16.00;;;;;16.68;70.06;101121.69;5038737;28;45467;-91
2022/09/12 04:47:33;;;;;;;;;16.50;13.00;;;;;16.64;70.17;101109.59;5021604;28;45394;-91
2022/09/12 04:50:04;;;;;;;;;18.25;12.75;;;;;16.63;70.05;101102.66;5004678;28;45350;-91
2022/09/12 04:52:31;;;;;;;;;16.75;15.00;;;;;16.60;70.37;101108.06;5021971;28;45510;-92
2022/09/12 04:54:57;;;;;;;;;15.00;14.00;;;;;16.59;70.31;101109.00;5021584;28;46386;-92
2022/09/12 04:57:24;;;;;;;;;14.50;13.00;;;;;16.58;70.52;101102.88;5020936;28;45479;-91
2022/09/12 04:59:50;;;;;;;;;18.50;14.00;;;;;16.55;70.15;101097.78;5021786;28;45399;-92
2022/09/12 05:02:20;;;;;;;;;22.00;13.75;;;;;16.52;70.76;101097.91;5005169;28;45350;-91
2022/09/12 05:04:48;;;;;;;;;16.75;14.50;;;;;16.50;70.67;101094.50;5021259;28;47025;-90
2022/09/12 05:07:15;;;;;;;;;22.25;14.00;;;;;16.48;70.84;101096.38;5037632;28;45489;-92
2022/09/12 05:09:41;;;;;;;;;18.75;16.00;;;;;16.51;70.81;101090.09;5038167;28;45333;-91
2022/09/12 05:12:06;;;;;;;;;12.75;12.75;;;;;16.51;70.75;101084.84;5004428;28;45364;-92
2022/09/12 05:14:36;;;;;;;;;6.25;5.75;;;;;16.47;70.99;101081.50;5038362;28;46579;-92
2022/09/12 05:17:01;;;;;;;;;19.00;15.75;;;;;16.45;70.81;101097.38;5038372;28;45858;-92
2022/09/12 05:19:30;;;;;;;;;13.25;12.75;;;;;16.45;71.14;101094.75;5038302;28;45512;-92
2022/09/12 05:21:56;;;;;;;;;14.00;12.75;;;;;16.44;70.77;101087.78;5038449;28;45313;-91
2022/09/12 05:24:21;;;;;;;;;11.25;11.25;;;;;16.45;70.89;101096.50;5036535;28;48012;-91
2022/09/12 05:26:46;;;;;;;;;14.75;12.00;;;;;16.46;70.70;101098.22;5020382;28;45330;-91
2022/09/12 05:29:12;;;;;;;;;15.00;12.25;;;;;16.45;70.70;101096.50;5020319;28;45386;-93
2022/09/12 05:31:40;;;;;;;;;14.75;11.25;;;;;16.45;70.96;101109.63;5020876;28;45346;-93
2022/09/12 05:34:07;;;;;;;;;17.50;12.50;;;;;16.47;70.61;101114.81;5037622;28;45428;-89
2022/09/12 05:36:32;;;;;;;;;15.25;14.50;;;;;16.47;71.05;101093.81;5019345;28;45795;-92
2022/09/12 05:38:59;;;;;;;;;15.25;13.25;;;;;16.45;70.46;101100.00;5036441;28;45345;-92
2022/09/12 05:41:29;;;;;;;;;18.00;14.25;;;;;16.45;71.05;101088.63;5020378;28;45571;-94
2022/09/12 05:44:04;;;;;;;;;10.75;10.00;;;;;16.45;71.08;101094.75;5020641;28;45578;-93
2022/09/12 05:46:50;;;;;;;;;18.75;13.00;;;;;16.45;70.50;101089.50;5020366;28;45321;-93
2022/09/12 05:49:15;;;;;;;;;13.25;13.00;;;;;16.47;70.99;101096.44;5020097;28;45429;-88
2022/09/12 05:51:43;;;;;;;;;17.75;12.00;;;;;16.48;70.88;101101.63;5037504;28;45272;-88
2022/09/12 05:54:11;;;;;;;;;15.00;11.75;;;;;16.52;71.13;101107.59;5019096;28;46493;-90
2022/09/12 05:56:39;;;;;;;;;13.00;11.50;;;;;16.53;70.79;101104.88;5036061;28;45681;-90
2022/09/12 05:59:09;;;;;;;;;12.00;11.50;;;;;16.53;70.78;101102.25;5019360;28;45410;-89
2022/09/12 06:01:34;;;;;;;;;13.00;12.00;;;;;16.54;71.12;101089.97;5002974;28;45689;-88
2022/09/12 06:04:02;;;;;;;;;21.75;13.00;;;;;16.55;70.86;101089.91;5035198;28;47299;-88
2022/09/12 06:06:28;;;;;;;;;15.25;14.00;;;;;16.55;70.91;101096.94;5018878;28;45358;-90
2022/09/12 06:08:59;;;;;;;;;15.50;11.00;;;;;16.56;71.03;101103.88;5019575;28;45312;-88
2022/09/12 06:11:27;;;;;;;;;19.25;13.25;;;;;16.57;70.53;101097.72;5037289;28;45417;-91
2022/09/12 06:13:54;;;;;;;;;12.00;11.00;;;;;16.59;71.16;101103.75;5019058;28;46550;-89
2022/09/12 06:16:21;;;;;;;;;17.25;14.25;;;;;16.61;70.88;101102.72;5018683;28;45352;-89
2022/09/12 06:18:50;;;;;;;;;13.50;11.00;;;;;16.66;70.92;101110.41;5035219;28;45431;-88
2022/09/12 06:21:16;;;;;;;;;17.75;11.75;;;;;16.68;71.00;101115.56;5035957;28;45531;-87
2022/09/12 06:23:42;;;;;;;;;15.50;12.00;;;;;16.71;70.34;101113.63;5051711;28;46962;-87
2022/09/12 06:26:09;;;;;;;;;13.00;12.00;;;;;16.72;70.81;101112.72;5035051;28;46014;-87
2022/09/12 06:28:37;;;;;;;;;10.00;7.75;;;;;16.70;70.52;101109.31;5018591;28;45290;-87
2022/09/12 06:31:07;;;;;;;;;15.75;11.25;;;;;16.71;70.41;101116.25;5035030;28;45338;-87
2022/09/12 06:33:34;;;;;;;;;14.00;12.00;;;;;16.69;70.36;101120.75;5018109;28;48107;-88
2022/09/12 06:36:05;;;;;;;;;14.75;14.50;;;;;16.68;70.27;101111.19;5035475;28;45456;-87
2022/09/12 06:38:31;;;;;;;;;15.00;13.25;;;;;16.69;70.39;101112.03;5036090;28;45369;-87
2022/09/12 06:40:56;;;;;;;;;15.50;14.50;;;;;16.70;70.42;101111.09;5017934;28;45518;-87
2022/09/12 06:43:24;;;;;;;;;14.25;10.25;;;;;16.70;70.46;101117.22;5017846;28;46125;-87
2022/09/12 06:45:49;;;;;;;;;14.25;13.50;;;;;16.74;70.63;101121.38;5018517;28;45286;-87
2022/09/12 06:48:15;;;;;;;;;13.50;12.00;;;;;16.77;70.05;101130.88;5035985;28;45239;-87
2022/09/12 06:50:40;;;;;;;;;13.50;13.50;;;;;16.78;70.32;101120.31;5017662;28;45598;-87
2022/09/12 06:53:06;;;;;;;;;15.25;13.50;;;;;16.82;70.66;101121.00;5017984;28;46276;-87
2022/09/12 06:55:32;;;;;;;;;18.75;15.00;;;;;16.83;70.20;101113.09;5018186;28;45536;-87
2022/09/12 06:57:58;;;;;;;;;16.25;13.75;;;;;16.86;70.49;101114.69;5035648;28;45433;-87
2022/09/12 07:00:23;;;;;;;;;16.75;14.25;;;;;16.88;70.45;101110.22;5035818;28;45372;-87
2022/09/12 07:02:55;;;;;;;;;21.50;14.00;;;;;16.91;70.61;101111.84;5035581;28;47112;-87
2022/09/12 07:05:21;;;;;;;;;12.75;12.25;;;;;16.94;70.52;101112.56;5017916;28;45288;-88
2022/09/12 07:07:46;;;;;;;;;15.50;14.00;;;;;16.97;70.33;101114.16;5035676;28;45379;-87
2022/09/12 07:10:14;;;;;;;;;18.25;16.75;;;;;17.01;70.39;101110.47;5017931;28;45470;-87
2022/09/12 07:12:42;;;;;;;;;16.75;14.50;;;;;17.05;70.32;101106.78;5017548;28;47478;-87
2022/09/12 07:15:09;;;;;;;;;13.00;13.00;;;;;17.10;70.37;101112.63;5034262;28;45366;-87
2022/09/12 07:17:34;;;;;;;;;14.00;13.75;;;;;17.16;70.19;101114.09;5035665;28;45395;-87
2022/09/12 07:20:00;;;;;;;;;14.00;12.75;;;;;17.18;70.17;101105.22;5017442;28;45392;-87
2022/09/12 07:22:25;;;;;;;;;19.50;16.00;;;;;17.21;70.01;101104.19;5035456;28;45450;-87
2022/09/12 07:24:59;;;;;;;;;14.50;14.50;;;;;17.25;69.87;101110.16;5035454;28;45375;-87
2022/09/12 07:27:28;;;;;;;;;16.50;13.75;;;;;17.29;69.90;101109.94;5018943;28;45442;-87
2022/09/12 07:29:53;;;;;;;;;12.75;12.50;;;;;17.32;70.21;101108.91;5035431;28;45415;-87
2022/09/12 07:32:19;;;;;;;;;20.75;14.25;;;;;17.37;69.83;101109.53;5017525;28;46312;-87
2022/09/12 07:34:44;;;;;;;;;18.50;16.50;;;;;17.43;69.63;101111.84;5033635;28;45640;-87
2022/09/12 07:37:10;;;;;;;;;16.75;14.50;;;;;17.49;69.74;101103.63;5017579;28;45266;-87
2022/09/12 07:39:36;;;;;;;;;13.25;12.00;;;;;17.54;69.66;101106.03;5035485;28;45452;-87
2022/09/12 07:42:02;;;;;;;;;17.50;15.00;;;;;17.58;69.30;101104.94;5035166;28;47706;-87
2022/09/12 07:44:29;;;;;;;;;19.25;15.25;;;;;17.61;69.59;101100.34;5035372;28;45349;-88
2022/09/12 07:46:55;;;;;;;;;18.75;17.00;;;;;17.65;69.28;101105.47;5018070;28;45387;-87
2022/09/12 07:49:20;;;;;;;;;23.25;16.00;;;;;17.68;69.62;101114.06;5034899;28;45436;-87
2022/09/12 07:51:46;;;;;;;;;16.75;14.00;;;;;17.74;69.60;101119.00;5017051;28;52185;-87
2022/09/12 07:54:11;;;;;;;;;18.50;15.00;;;;;17.79;68.89;101116.09;5036559;28;45223;-87
2022/09/12 07:56:36;;;;;;;;;20.50;15.00;;;;;17.84;68.86;101114.09;5020667;28;45825;-87
2022/09/12 07:59:02;;;;;;;;;17.25;15.50;;;;;17.90;69.38;101118.19;5020546;28;45437;-86
2022/09/12 08:01:30;;;;;;;;;19.00;15.25;;;;;17.98;68.50;101113.38;5041225;28;48312;-87
2022/09/12 08:03:57;;;;;;;;;17.75;15.00;;;;;18.06;68.77;101116.44;5021801;28;45950;-87
2022/09/12 08:06:24;;;;;;;;;23.00;17.50;;;;;18.12;68.50;101112.63;5040154;28;45590;-86
2022/09/12 08:08:51;;;;;;;;;17.00;15.00;;;;;18.19;68.59;101111.34;5035241;28;46251;-86
2022/09/12 08:11:20;;;;;;;;;21.00;19.00;;;;;18.30;67.93;101108.13;5038153;28;45397;-88
2022/09/12 08:13:50;;;;;;;;;19.00;16.00;;;;;18.41;67.99;101104.91;5043151;28;45360;-88
2022/09/12 08:16:19;;;;;;;;;23.50;17.25;;;;;18.54;67.97;101105.91;5047679;28;45456;-87
2022/09/12 08:18:45;;;;;;;;;20.00;15.50;;;;;18.64;67.20;101100.97;5039112;28;45495;-88
2022/09/12 08:21:19;;;;;;;;;21.00;16.50;;;;;18.75;67.52;101111.75;5037123;28;46983;-88
2022/09/12 08:23:45;;;;;;;;;18.75;17.00;;;;;18.85;66.71;101106.81;5057270;28;45659;-89
2022/09/12 08:26:14;;;;;;;;;21.75;16.50;;;;;18.91;66.29;101107.31;5021217;28;45572;-89
2022/09/12 08:28:44;;;;;;;;;19.75;17.00;;;;;18.96;66.18;101107.03;5027389;28;45452;-89
2022/09/12 08:31:11;;;;;;;;;17.50;14.50;;;;;19.03;66.44;101112.81;5031680;28;48169;-89
2022/09/12 08:33:37;;;;;;;;;16.00;15.25;;;;;19.08;66.30;101108.13;5020604;28;45779;-89
2022/09/12 08:36:03;;;;;;;;;17.25;14.00;;;;;19.14;66.18;101105.97;5028100;28;45422;-89
2022/09/12 08:38:29;;;;;;;;;21.50;19.25;;;;;19.18;65.47;101101.34;5032720;28;45586;-89
2022/09/12 08:41:01;;;;;;;;;24.00;16.75;;;;;19.21;65.77;101103.81;5029520;28;47212;-89
2022/09/12 08:43:45;;;;;;;;;17.25;13.75;;;;;19.25;65.56;101100.06;5028941;28;45740;-89
2022/09/12 08:46:16;;;;;;;;;16.25;16.25;;;;;19.33;65.32;101095.19;5039162;28;45463;-88
2022/09/12 08:48:44;;;;;;;;;19.75;15.75;;;;;19.41;65.09;101102.63;5039440;28;45619;-89
2022/09/12 08:51:16;;;;;;;;;17.75;13.25;;;;;19.51;64.79;101095.84;5025570;28;46317;-89
2022/09/12 08:53:46;;;;;;;;;20.25;15.25;;;;;19.61;64.91;101100.56;5055032;28;46120;-88
2022/09/12 08:56:11;;;;;;;;;20.75;14.50;;;;;19.66;64.13;101101.97;5038294;28;45389;-88
2022/09/12 08:58:40;;;;;;;;;22.00;18.75;;;;;19.73;64.32;101102.50;5036276;28;45404;-89
2022/09/12 09:01:17;;;;;;;;;19.75;17.00;;;;;19.80;64.24;101098.53;5035796;28;47121;-89
2022/09/12 09:03:55;;;;;;;;;22.25;18.00;;;;;19.90;63.74;101097.00;5042201;28;45782;-89
2022/09/12 09:06:24;;;;;;;;;18.25;18.00;;;;;19.99;63.80;101094.75;5057310;28;45431;-88
2022/09/12 09:09:07;;;;;;;;;21.25;14.50;;;;;20.07;63.59;101093.28;5055276;28;45297;-89
2022/09/12 09:11:48;;;;;;;;;16.75;12.00;;;;;20.14;63.29;101087.63;5026973;28;47468;-88
2022/09/12 09:17:02;;;;;;;;;15.00;12.75;;;;;20.31;63.05;101084.75;5022173;28;45500;-88
2022/09/12 09:19:33;;;;;;;;;24.75;16.00;;;;;20.41;62.20;101077.06;5014742;28;45310;-89
2022/09/12 09:22:05;;;;;;;;;19.75;15.75;;;;;20.49;62.15;101077.44;5025742;28;45548;-88
2022/09/12 09:24:38;;;;;;;;;14.50;11.00;;;;;20.60;62.31;101072.31;5045279;28;45719;-89
2022/09/12 09:27:13;;;;;;;;;15.75;11.25;;;;;20.69;62.08;101076.16;5019652;28;45272;-89
2022/09/12 09:29:48;;;;;;;;;15.50;13.25;;;;;20.78;61.58;101072.03;5030015;28;45306;-89
2022/09/12 09:32:18;;;;;;;;;15.75;14.00;;;;;20.88;61.42;101075.78;5053719;28;46688;-89
2022/09/12 09:34:44;;;;;;;;;15.00;12.00;;;;;20.99;61.27;101070.59;5025488;28;45824;-91
2022/09/12 09:37:18;;;;;;;;;11.50;11.00;;;;;21.14;60.74;101067.88;5023693;28;45350;-89
2022/09/12 09:40:16;;;;;;;;;12.50;10.00;;;;;21.21;60.14;101061.19;5035927;28;45401;-90
2022/09/12 09:42:54;;;;;;;;;12.00;10.25;;;;;21.33;59.71;101055.06;5019682;28;46992;-90
2022/09/12 09:45:23;;;;;;;;;10.75;9.75;;;;;21.44;60.15;101068.44;5036329;28;45950;-89
2022/09/12 09:47:53;;;;;;;;;11.00;9.50;;;;;21.64;58.55;101063.56;5019825;28;45527;-89
2022/09/12 09:50:19;;;;;;;;;7.00;5.75;;;;;21.85;58.91;101055.88;5019218;28;45519;-90
2022/09/12 09:52:47;;;;;;;;;8.25;7.25;;;;;22.10;58.26;101059.41;5015918;28;47244;-92
2022/09/12 09:55:20;;;;;;;;;9.75;7.75;;;;;22.31;58.25;101052.59;4999981;28;45395;-91
2022/09/12 09:57:46;;;;;;;;;8.00;7.50;;;;;22.50;57.28;101052.06;5015230;28;45358;-87
2022/09/12 10:00:35;;;;;;;;;10.75;10.50;;;;;22.69;57.28;101051.53;5036072;28;45397;-88
2022/09/12 10:03:13;;;;;;;;;10.25;9.75;;;;;22.86;56.17;101050.25;5035093;28;47541;-88
2022/09/12 10:05:47;;;;;;;;;8.00;7.50;;;;;23.00;55.95;101046.56;5036272;28;45413;-87
2022/09/12 10:08:28;;;;;;;;;7.75;7.75;;;;;23.06;54.96;101048.75;5021591;28;45401;-87
2022/09/12 10:11:10;;;;;;;;;9.00;6.75;;;;;23.14;55.34;101033.09;5034689;28;46181;-88
2022/09/12 10:13:39;;;;;;;;;8.75;7.00;;;;;23.24;54.68;101030.56;5018493;28;46354;-89
2022/09/12 10:16:21;;;;;;;;;7.50;7.00;;;;;23.28;54.10;101029.38;5034148;28;45718;-89
2022/09/12 10:18:49;;;;;;;;;7.00;7.00;;;;;23.33;53.68;101035.16;5036476;28;45708;-88
2022/09/12 10:21:29;;;;;;;;;6.00;6.00;;;;;23.43;53.67;101023.81;5018418;28;45322;-89
2022/09/12 10:24:18;;;;;;;;;7.50;6.50;;;;;23.49;53.56;101034.78;5031528;28;46589;-85
2022/09/12 10:26:49;;;;;;;;;7.50;6.25;;;;;23.54;53.65;101024.66;5035813;28;45486;-87
2022/09/12 10:29:21;;;;;;;;;5.50;4.25;;;;;23.61;53.30;101019.72;5021222;28;45468;-86
2022/09/12 10:31:50;;;;;;;;;4.50;4.50;;;;;23.73;53.23;101025.84;5015193;28;45629;-93
2022/09/12 10:34:36;;;;;;;;;4.25;4.25;;;;;23.83;52.25;101020.66;5001548;28;47035;-87
2022/09/12 10:37:18;;;;;;;;;3.50;3.50;;;;;23.90;51.80;101022.72;5018394;28;45505;-89
2022/09/12 10:39:52;;;;;;;;;5.25;5.25;;;;;24.00;51.24;101019.31;5035031;28;45327;-89
2022/09/12 10:42:41;;;;;;;;;3.75;3.75;;;;;24.14;50.94;101029.66;5017612;28;45425;-89
2022/09/12 10:45:21;;;;;;;;;4.25;4.00;;;;;24.32;49.81;101022.84;5020628;28;47617;-95
2022/09/12 10:47:47;;;;;;;;;5.75;3.75;;;;;24.50;49.68;101019.63;5020421;28;45329;-90
2022/09/12 10:50:36;;;;;;;;;4.00;4.00;;;;;24.68;50.16;101022.56;5038803;28;45341;-96
2022/09/12 10:53:21;;;;;;;;;4.00;4.00;;;;;24.81;50.17;101007.25;5039239;28;45278;-94
2022/09/12 10:56:11;;;;;;;;;3.75;3.75;;;;;25.00;49.31;101008.34;5043662;28;45573;-96
2022/09/12 10:59:12;;;;;;;;;2.25;2.25;;;;;25.26;48.01;101007.00;5023084;28;45757;-94
2022/09/12 11:01:43;;;;;;;;;3.00;2.50;;;;;25.59;47.45;100998.81;5056798;28;45447;-96
2022/09/12 11:04:43;;;;;;;;;4.00;2.25;;;;;25.89;47.65;101008.56;5057016;28;45448;-93
2022/09/12 11:07:27;;;;;;;;;4.25;3.00;;;;;26.14;46.37;101001.06;5009904;28;45499;-95
2022/09/12 11:10:10;;;;;;;;;4.00;3.25;;;;;26.41;45.92;101005.69;4997670;28;45726;-95
2022/09/12 11:13:03;;;;;;;;;4.00;3.00;;;;;26.56;44.33;101006.97;4989271;28;45439;-94
2022/09/12 11:15:48;;;;;;;;;3.00;3.00;;;;;26.72;44.67;101011.75;5003486;28;45387;-95
2022/09/12 11:18:39;;;;;;;;;2.00;2.00;;;;;26.80;43.78;101027.91;4995662;28;47513;-95
2022/09/12 11:21:23;;;;;;;;;2.25;2.25;;;;;26.85;42.13;101019.44;4978758;28;45901;-96
2022/09/12 11:24:22;;;;;;;;;3.00;2.25;;;;;26.81;43.39;101020.72;4995970;28;45546;-95
2022/09/12 11:27:07;;;;;;;;;3.25;2.00;;;;;26.93;44.23;101008.03;4994561;28;45349;-95
2022/09/12 11:29:49;;;;;;;;;3.25;3.00;;;;;27.98;44.01;100998.88;4981880;28;47270;-95
2022/09/12 11:32:29;;;;;;;;;3.00;2.00;;;;;31.26;41.17;101005.47;5014081;28;45495;-96
2022/09/12 11:35:15;;;;;;;;;4.00;4.00;;;;;34.24;36.77;101000.66;4998604;28;45449;-96
2022/09/12 11:38:05;;;;;;;;;4.50;3.00;;;;;36.77;33.69;100984.56;4981986;28;45318;-96
2022/09/12 11:40:33;;;;;;;;;2.00;2.00;;;;;38.96;28.87;100985.34;4997820;28;47198;-96
2022/09/12 11:43:04;;;;;;;;;2.00;1.50;;;;;40.59;28.52;100979.88;5001113;28;45306;-95